createdAt,value
2023-04-16T00:01:28.040Z,150.15
2023-04-16T00:03:55.477Z,137.68
2023-04-16T00:06:23.200Z,137.13
2023-04-16T00:08:51.905Z,134.55
2023-04-16T00:11:18.616Z,145.30
2023-04-16T00:13:45.269Z,160.73
2023-04-16T00:16:11.858Z,155.02
2023-04-16T00:18:39.224Z,161.13
2023-04-16T00:21:07.251Z,171.65
2023-04-16T00:23:34.029Z,171.30
2023-04-16T00:26:00.736Z,169.15
2023-04-16T00:28:27.568Z,176.60
2023-04-16T00:30:55.108Z,170.57
2023-04-16T00:33:22.423Z,179.02
2023-04-16T00:35:49.270Z,183.00
2023-04-16T00:38:16.033Z,178.90
2023-04-16T00:40:42.883Z,173.10
2023-04-16T00:43:09.488Z,188.73
2023-04-16T00:45:36.938Z,183.07
2023-04-16T00:48:04.461Z,189.65
2023-04-16T00:50:31.359Z,207.07
2023-04-16T00:52:58.235Z,214.20
2023-04-16T00:55:24.967Z,217.38
2023-04-16T00:57:52.008Z,247.25
2023-04-16T01:00:18.686Z,232.30
2023-04-16T01:02:45.590Z,239.73
2023-04-16T01:05:12.350Z,239.30
2023-04-16T01:07:38.959Z,246.52
2023-04-16T01:10:06.285Z,269.02
2023-04-16T01:12:32.873Z,272.77
2023-04-16T01:14:59.643Z,246.82
2023-04-16T01:17:26.279Z,224.00
2023-04-16T01:19:52.919Z,238.90
2023-04-16T01:22:19.669Z,262.23
2023-04-16T01:24:46.296Z,242.50
2023-04-16T01:27:12.921Z,228.88
2023-04-16T01:29:39.715Z,229.82
2023-04-16T01:32:07.074Z,212.93
2023-04-16T01:34:36.541Z,220.88
2023-04-16T01:37:03.836Z,211.65
2023-04-16T01:39:30.485Z,215.15
2023-04-16T01:41:57.934Z,198.13
2023-04-16T01:44:25.367Z,195.93
2023-04-16T01:46:52.080Z,203.07
2023-04-16T01:49:18.908Z,188.38
2023-04-16T01:51:45.659Z,185.30
2023-04-16T01:54:12.763Z,194.13
2023-04-16T01:56:39.883Z,191.73
2023-04-16T01:59:06.625Z,197.77
2023-04-16T02:01:38.516Z,196.43
2023-04-16T02:04:05.493Z,212.88
2023-04-16T02:06:32.197Z,202.95
2023-04-16T02:08:58.917Z,208.88
2023-04-16T02:11:26.353Z,205.63
2023-04-16T02:13:53.473Z,178.68
2023-04-16T02:16:20.837Z,172.13
2023-04-16T02:18:53.356Z,164.88
2023-04-16T02:21:21.710Z,168.85
2023-04-16T02:23:51.505Z,174.98
2023-04-16T02:26:23.601Z,153.40
2023-04-16T02:28:50.942Z,165.30
2023-04-16T02:31:19.856Z,158.77
2023-04-16T02:33:48.024Z,162.13
2023-04-16T02:36:14.923Z,169.93
2023-04-16T02:38:41.725Z,166.75
2023-04-16T02:41:08.929Z,157.25
2023-04-16T02:43:35.691Z,169.10
2023-04-16T02:46:02.389Z,177.32
2023-04-16T02:48:29.056Z,175.50
2023-04-16T02:50:55.923Z,182.55
2023-04-16T02:53:22.556Z,177.25
2023-04-16T02:55:55.738Z,191.63
2023-04-16T02:58:25.228Z,187.45
2023-04-16T03:00:53.361Z,198.18
2023-04-16T03:03:21.189Z,207.00
2023-04-16T03:05:48.157Z,209.60
2023-04-16T03:08:16.369Z,221.57
2023-04-16T03:10:43.435Z,213.02
2023-04-16T03:13:10.160Z,194.25
2023-04-16T03:15:36.836Z,198.40
2023-04-16T03:18:03.720Z,199.98
2023-04-16T03:20:30.541Z,188.80
2023-04-16T03:22:57.237Z,200.52
2023-04-16T03:25:23.875Z,190.18
2023-04-16T03:27:51.270Z,176.57
2023-04-16T03:30:18.185Z,177.07
2023-04-16T03:32:45.018Z,174.70
2023-04-16T03:35:12.651Z,176.15
2023-04-16T03:37:39.409Z,165.23
2023-04-16T03:40:07.203Z,178.15
2023-04-16T03:42:34.412Z,174.55
2023-04-16T03:45:01.323Z,182.38
2023-04-16T03:47:28.275Z,181.10
2023-04-16T03:49:58.940Z,192.40
2023-04-16T03:52:27.997Z,191.57
2023-04-16T03:54:55.060Z,180.93
2023-04-16T03:57:26.187Z,185.07
2023-04-16T03:59:56.194Z,185.15
2023-04-16T04:02:23.861Z,182.32
2023-04-16T04:04:50.815Z,209.38
2023-04-16T04:07:17.946Z,195.38
2023-04-16T04:09:44.600Z,197.77
2023-04-16T04:12:11.247Z,193.35
2023-04-16T04:14:40.429Z,185.90
2023-04-16T04:17:08.768Z,187.85
2023-04-16T04:19:35.386Z,180.27
2023-04-16T04:22:03.364Z,189.38
2023-04-16T04:24:30.049Z,162.35
2023-04-16T04:26:58.109Z,181.93
2023-04-16T04:29:24.961Z,195.88
2023-04-16T04:31:51.892Z,180.43
2023-04-16T04:34:19.033Z,162.65
2023-04-16T04:36:45.885Z,154.98
2023-04-16T04:39:13.839Z,172.60
2023-04-16T04:41:43.144Z,171.57
2023-04-16T04:44:09.830Z,158.27
2023-04-16T04:46:36.534Z,151.60
2023-04-16T04:49:03.227Z,140.60
2023-04-16T04:51:31.753Z,136.93
2023-04-16T04:53:58.663Z,126.72
2023-04-16T04:56:25.512Z,125.53
2023-04-16T04:58:52.276Z,122.72
2023-04-16T05:01:20.252Z,138.48
2023-04-16T05:03:46.947Z,125.43
2023-04-16T05:06:13.765Z,126.43
2023-04-16T05:08:40.630Z,125.22
2023-04-16T05:11:07.224Z,122.45
2023-04-16T05:13:33.837Z,122.72
2023-04-16T05:16:01.192Z,120.00
2023-04-16T05:18:27.775Z,116.65
2023-04-16T05:20:54.589Z,120.72
2023-04-16T05:23:21.193Z,118.80
2023-04-16T05:25:47.784Z,120.10
2023-04-16T05:28:14.353Z,114.03
2023-04-16T05:30:41.134Z,128.95
2023-04-16T05:33:07.811Z,131.07
2023-04-16T05:35:34.979Z,129.05
2023-04-16T05:38:02.295Z,124.10
2023-04-16T05:40:29.256Z,119.63
2023-04-16T05:42:55.837Z,123.15
2023-04-16T05:45:22.461Z,123.80
2023-04-16T05:47:49.161Z,122.18
2023-04-16T05:50:15.881Z,121.35
2023-04-16T05:52:42.553Z,130.10
2023-04-16T05:55:09.730Z,131.07
2023-04-16T05:57:36.361Z,138.30
2023-04-16T06:00:03.769Z,141.88
2023-04-16T06:02:39.143Z,141.00
2023-04-16T06:05:06.250Z,148.88
2023-04-16T06:07:32.900Z,142.35
2023-04-16T06:09:59.517Z,154.55
2023-04-16T06:12:26.121Z,162.45
2023-04-16T06:14:52.743Z,170.25
2023-04-16T06:17:19.477Z,157.93
2023-04-16T06:19:46.185Z,174.27
2023-04-16T06:22:12.991Z,153.82
2023-04-16T06:24:39.677Z,148.13
2023-04-16T06:27:06.301Z,133.88
2023-04-16T06:29:40.498Z,129.35
2023-04-16T06:34:35.152Z,124.00
2023-04-16T06:37:01.779Z,133.05
2023-04-16T06:39:28.406Z,124.68
2023-04-16T06:41:55.869Z,128.68
2023-04-16T06:44:22.500Z,138.25
2023-04-16T06:46:50.149Z,151.68
2023-04-16T06:49:16.792Z,138.02
2023-04-16T06:51:43.440Z,139.52
2023-04-16T06:54:10.131Z,143.73
2023-04-16T06:56:37.348Z,144.25
2023-04-16T06:59:04.426Z,137.18
2023-04-16T07:01:31.322Z,142.05
2023-04-16T07:03:58.520Z,159.52
2023-04-16T07:06:27.003Z,156.63
2023-04-16T07:08:53.664Z,158.40
2023-04-16T07:11:20.866Z,154.88
2023-04-16T07:13:47.601Z,151.20
2023-04-16T07:16:14.273Z,163.18
2023-04-16T07:18:41.028Z,157.55
2023-04-16T07:21:07.637Z,165.30
2023-04-16T07:23:34.496Z,157.05
2023-04-16T07:26:01.146Z,160.73
2023-04-16T07:28:27.808Z,141.60
2023-04-16T07:30:54.740Z,133.23
2023-04-16T07:33:21.387Z,141.65
2023-04-16T07:35:48.054Z,132.13
2023-04-16T07:38:16.155Z,137.68
2023-04-16T07:40:42.997Z,137.02
2023-04-16T07:43:10.012Z,132.18
2023-04-16T07:45:36.745Z,133.05
2023-04-16T07:48:03.584Z,132.55
2023-04-16T07:50:30.234Z,119.28
2023-04-16T07:52:57.407Z,114.00
2023-04-16T07:55:24.231Z,121.18
2023-04-16T07:57:51.028Z,109.13
2023-04-16T08:00:18.273Z,107.25
2023-04-16T08:02:45.174Z,96.43
2023-04-16T08:05:12.678Z,102.40
2023-04-16T08:07:39.338Z,91.95
2023-04-16T08:10:06.610Z,86.50
2023-04-16T08:12:33.260Z,79.28
2023-04-16T08:14:59.906Z,77.00
2023-04-16T08:17:28.324Z,65.90
2023-04-16T08:19:55.041Z,68.60
2023-04-16T08:22:22.431Z,64.85
2023-04-16T08:24:49.128Z,68.88
2023-04-16T08:27:19.615Z,59.78
2023-04-16T08:29:47.730Z,58.85
2023-04-16T08:32:14.472Z,59.67
2023-04-16T08:34:42.265Z,51.95
2023-04-16T08:37:09.324Z,60.42
2023-04-16T08:39:35.993Z,49.15
2023-04-16T08:42:05.545Z,49.65
2023-04-16T08:44:35.254Z,49.30
2023-04-16T08:47:02.790Z,52.45
2023-04-16T08:49:29.742Z,50.70
2023-04-16T08:51:57.001Z,52.35
2023-04-16T08:54:43.225Z,47.25
2023-04-16T08:57:12.376Z,49.92
2023-04-16T08:59:40.024Z,49.60
2023-04-16T09:02:07.317Z,47.90
2023-04-16T09:04:34.264Z,46.97
2023-04-16T09:07:04.505Z,47.33
2023-04-16T09:09:33.418Z,46.83
2023-04-16T09:12:01.205Z,44.78
2023-04-16T09:14:28.214Z,48.58
2023-04-16T09:16:55.598Z,45.90
2023-04-16T09:19:23.272Z,44.70
2023-04-16T09:21:50.485Z,40.08
2023-04-16T09:24:17.504Z,43.17
2023-04-16T09:26:44.261Z,43.58
2023-04-16T09:29:11.057Z,42.65
2023-04-16T09:31:38.055Z,46.17
2023-04-16T09:34:08.023Z,43.08
2023-04-16T09:36:36.210Z,47.65
2023-04-16T09:39:03.809Z,41.63
2023-04-16T09:41:32.385Z,44.70
2023-04-16T09:44:04.394Z,49.85
2023-04-16T09:46:34.474Z,44.28
2023-04-16T09:49:13.952Z,46.13
2023-04-16T09:51:44.956Z,43.75
2023-04-16T09:54:11.711Z,45.63
2023-04-16T09:56:46.038Z,48.22
2023-04-16T09:59:23.495Z,43.97
2023-04-16T10:01:53.138Z,47.90
2023-04-16T10:04:24.132Z,47.22
2023-04-16T10:07:04.992Z,47.20
2023-04-16T10:09:38.816Z,45.05
2023-04-16T10:12:06.670Z,46.60
2023-04-16T10:14:36.470Z,45.67
2023-04-16T10:17:04.106Z,47.83
2023-04-16T10:19:32.165Z,43.65
2023-04-16T10:21:59.307Z,43.70
2023-04-16T10:24:26.061Z,44.28
2023-04-16T10:26:53.101Z,43.45
2023-04-16T10:29:23.627Z,54.05
2023-04-16T10:31:51.013Z,52.55
2023-04-16T10:34:18.404Z,51.78
2023-04-16T10:36:49.258Z,49.58
2023-04-16T10:39:22.392Z,55.13
2023-04-16T10:41:50.021Z,53.25
2023-04-16T10:44:19.716Z,47.67
2023-04-16T10:46:51.286Z,54.20
2023-04-16T10:49:24.336Z,46.00
2023-04-16T10:52:07.258Z,51.88
2023-04-16T10:54:35.957Z,50.92
2023-04-16T10:57:08.442Z,52.08
2023-04-16T10:59:37.511Z,45.58
2023-04-16T11:02:11.744Z,50.80
2023-04-16T11:04:40.337Z,44.95
2023-04-16T11:07:19.836Z,43.55
2023-04-16T11:09:53.579Z,46.75
2023-04-16T11:12:22.422Z,48.78
2023-04-16T11:14:50.019Z,48.53
2023-04-16T11:17:17.216Z,47.10
2023-04-16T11:19:44.585Z,47.78
2023-04-16T11:22:17.202Z,45.60
2023-04-16T11:24:46.830Z,45.92
2023-04-16T11:27:16.474Z,53.10
2023-04-16T11:29:45.000Z,47.97
2023-04-16T11:32:21.465Z,46.92
2023-04-16T11:34:48.209Z,47.65
2023-04-16T11:37:14.864Z,46.28
2023-04-16T11:39:49.348Z,44.63
2023-04-16T11:42:22.521Z,46.03
2023-04-16T11:44:56.808Z,45.55
2023-04-16T11:47:24.602Z,44.75
2023-04-16T11:49:51.674Z,43.90
2023-04-16T11:52:32.622Z,44.70
2023-04-16T11:54:59.801Z,45.25
2023-04-16T11:57:31.698Z,44.70
2023-04-16T12:00:01.426Z,44.50
2023-04-16T12:02:40.390Z,43.95
2023-04-16T12:05:28.270Z,43.42
2023-04-16T12:07:55.744Z,41.50
2023-04-16T12:10:22.528Z,42.50
2023-04-16T12:12:49.150Z,43.67
2023-04-16T12:15:16.198Z,43.72
2023-04-16T12:17:42.979Z,45.00
2023-04-16T12:20:14.891Z,44.63
2023-04-16T12:22:47.128Z,43.33
2023-04-16T12:25:16.578Z,46.03
2023-04-16T12:27:55.497Z,44.83
2023-04-16T12:30:24.267Z,43.78
2023-04-16T12:32:53.439Z,44.65
2023-04-16T12:35:34.152Z,43.88
2023-04-16T12:38:01.569Z,43.83
2023-04-16T12:40:28.415Z,45.17
2023-04-16T12:42:55.205Z,46.97
2023-04-16T12:45:22.157Z,48.15
2023-04-16T12:47:50.326Z,46.78
2023-04-16T12:50:17.679Z,48.22
2023-04-16T12:52:44.426Z,46.47
2023-04-16T12:55:11.644Z,49.92
2023-04-16T12:57:38.304Z,48.67
2023-04-16T13:00:06.509Z,50.05
2023-04-16T13:02:34.912Z,49.95
2023-04-16T13:05:01.972Z,47.80
2023-04-16T13:07:31.630Z,54.33
2023-04-16T13:09:58.281Z,56.03
2023-04-16T13:12:24.904Z,58.10
2023-04-16T13:14:51.527Z,51.40
2023-04-16T13:17:18.215Z,53.92
2023-04-16T13:19:45.614Z,60.17
2023-04-16T13:22:12.293Z,52.45
2023-04-16T13:24:39.054Z,51.50
2023-04-16T13:27:07.813Z,50.42
2023-04-16T13:29:36.575Z,50.83
2023-04-16T13:32:04.092Z,49.38
2023-04-16T13:34:31.627Z,50.30
2023-04-16T13:36:58.237Z,42.63
2023-04-16T13:39:25.264Z,44.58
2023-04-16T13:41:51.919Z,45.90
2023-04-16T13:44:18.501Z,47.45
2023-04-16T13:46:47.645Z,46.53
2023-04-16T13:49:14.824Z,45.42
2023-04-16T13:51:44.649Z,47.20
2023-04-16T13:54:11.346Z,42.00
2023-04-16T13:56:40.201Z,37.40
2023-04-16T13:59:07.503Z,39.53
2023-04-16T14:01:34.487Z,42.40
2023-04-16T14:04:05.978Z,42.70
2023-04-16T14:06:33.886Z,41.58
2023-04-16T14:09:01.112Z,44.75
2023-04-16T14:11:27.942Z,42.13
2023-04-16T14:13:54.940Z,44.45
2023-04-16T14:16:21.685Z,37.53
2023-04-16T14:18:48.775Z,39.17
2023-04-16T14:21:15.498Z,39.13
2023-04-16T14:23:42.394Z,36.60
2023-04-16T14:26:09.219Z,41.05
2023-04-16T14:28:36.300Z,40.85
2023-04-16T14:31:02.919Z,43.97
2023-04-16T14:33:29.607Z,37.28
2023-04-16T14:35:56.335Z,40.15
2023-04-16T14:38:22.979Z,43.53
2023-04-16T14:40:49.599Z,39.47
2023-04-16T14:43:16.305Z,43.15
2023-04-16T14:45:43.067Z,43.28
2023-04-16T14:48:09.870Z,42.05
2023-04-16T14:50:37.844Z,42.47
2023-04-16T14:53:07.672Z,45.40
2023-04-16T14:55:34.315Z,46.22
2023-04-16T14:58:01.136Z,43.28
2023-04-16T15:00:27.987Z,50.25
2023-04-16T15:02:55.514Z,44.88
2023-04-16T15:05:22.435Z,56.67
2023-04-16T15:07:49.115Z,54.92
2023-04-16T15:10:16.252Z,53.45
2023-04-16T15:12:42.838Z,58.35
2023-04-16T15:15:10.469Z,58.00
2023-04-16T15:17:37.249Z,51.40
2023-04-16T15:20:10.405Z,53.20
2023-04-16T15:22:37.232Z,56.63
2023-04-16T15:25:05.277Z,58.88
2023-04-16T15:27:31.928Z,62.22
2023-04-16T15:29:58.571Z,59.58
2023-04-16T15:32:25.354Z,53.10
2023-04-16T15:34:52.080Z,56.05
2023-04-16T15:37:18.793Z,58.72
2023-04-16T15:39:45.663Z,57.20
2023-04-16T15:42:12.973Z,55.70
2023-04-16T15:44:40.280Z,57.53
2023-04-16T15:47:08.409Z,57.08
2023-04-16T15:49:35.943Z,61.17
2023-04-16T15:52:02.929Z,57.50
2023-04-16T15:54:30.528Z,57.72
2023-04-16T15:56:58.571Z,53.40
2023-04-16T15:59:26.200Z,54.67
2023-04-16T16:01:52.901Z,59.45
2023-04-16T16:04:22.650Z,59.80
2023-04-16T16:06:50.259Z,55.08
2023-04-16T16:09:16.983Z,54.03
2023-04-16T16:11:43.759Z,55.92
2023-04-16T16:14:10.761Z,57.40
2023-04-16T16:16:37.601Z,53.85
2023-04-16T16:19:04.477Z,55.80
2023-04-16T16:21:32.403Z,63.03
2023-04-16T16:23:59.055Z,56.60
2023-04-16T16:26:26.191Z,57.70
2023-04-16T16:28:53.135Z,55.75
2023-04-16T16:31:19.920Z,59.83
2023-04-16T16:33:46.785Z,53.15
2023-04-16T16:36:13.430Z,59.58
2023-04-16T16:38:41.093Z,52.28
2023-04-16T16:41:08.215Z,52.47
2023-04-16T16:43:36.550Z,51.70
2023-04-16T16:46:03.390Z,54.67
2023-04-16T16:48:30.070Z,54.20
2023-04-16T16:50:56.943Z,57.60
2023-04-16T16:53:23.637Z,53.03
2023-04-16T16:55:51.452Z,54.22
2023-04-16T16:58:18.433Z,59.00
2023-04-16T17:00:45.121Z,59.28
2023-04-16T17:03:12.051Z,61.95
2023-04-16T17:05:38.777Z,50.53
2023-04-16T17:08:06.497Z,55.58
2023-04-16T17:10:34.841Z,53.95
2023-04-16T17:13:01.532Z,61.22
2023-04-16T17:15:28.262Z,59.22
2023-04-16T17:17:55.017Z,62.15
2023-04-16T17:20:21.674Z,58.03
2023-04-16T17:22:48.461Z,52.45
2023-04-16T17:25:15.498Z,55.78
2023-04-16T17:27:42.117Z,64.53
2023-04-16T17:30:09.226Z,57.33
2023-04-16T17:32:35.966Z,58.95
2023-04-16T17:35:04.166Z,61.20
2023-04-16T17:37:31.307Z,58.80
2023-04-16T17:39:57.988Z,59.83
2023-04-16T17:42:24.794Z,62.72
2023-04-16T17:44:51.787Z,55.25
2023-04-16T17:47:18.435Z,61.53
2023-04-16T17:49:45.260Z,62.58
2023-04-16T17:52:11.925Z,61.92
2023-04-16T17:54:38.539Z,63.50
2023-04-16T17:57:05.199Z,60.67
2023-04-16T17:59:31.817Z,59.40
2023-04-16T18:01:58.470Z,71.35
2023-04-16T18:04:25.300Z,66.38
2023-04-16T18:06:52.008Z,65.85
2023-04-16T18:09:19.450Z,65.40
2023-04-16T18:11:46.199Z,68.22
2023-04-16T18:14:20.328Z,67.75
2023-04-16T18:16:47.918Z,63.97
2023-04-16T18:19:16.128Z,64.25
2023-04-16T18:21:43.436Z,64.43
2023-04-16T18:24:10.641Z,63.05
2023-04-16T18:26:37.699Z,64.32
2023-04-16T18:29:04.699Z,63.95
2023-04-16T18:31:31.438Z,62.15
2023-04-16T18:33:58.666Z,64.28
2023-04-16T18:36:26.531Z,62.17
2023-04-16T18:39:01.662Z,68.95
2023-04-16T18:41:29.616Z,63.78
2023-04-16T18:43:56.529Z,60.83
2023-04-16T18:46:23.376Z,62.58
2023-04-16T18:48:50.066Z,58.47
2023-04-16T18:51:16.904Z,63.88
2023-04-16T18:53:48.280Z,59.78
2023-04-16T18:56:15.286Z,59.53
2023-04-16T18:58:43.073Z,57.42
2023-04-16T19:01:12.840Z,59.60
2023-04-16T19:03:39.711Z,57.03
2023-04-16T19:06:06.559Z,60.63
2023-04-16T19:08:33.220Z,60.85
2023-04-16T19:11:00.221Z,57.22
2023-04-16T19:13:26.908Z,60.55
2023-04-16T19:16:01.498Z,58.00
2023-04-16T19:18:28.272Z,56.28
2023-04-16T19:21:01.379Z,59.33
2023-04-16T19:23:28.587Z,59.63
2023-04-16T19:25:58.614Z,58.33
2023-04-16T19:28:25.750Z,55.60
2023-04-16T19:30:55.795Z,58.15
2023-04-16T19:33:22.432Z,56.83
2023-04-16T19:35:49.065Z,54.97
2023-04-16T19:38:15.785Z,59.28
2023-04-16T19:40:46.603Z,56.75
2023-04-16T19:43:13.834Z,58.67
2023-04-16T19:45:44.438Z,60.58
2023-04-16T19:48:11.601Z,59.30
2023-04-16T19:50:42.230Z,55.00
2023-04-16T19:53:09.363Z,55.05
2023-04-16T19:55:36.685Z,60.58
2023-04-16T19:58:06.462Z,38.45
2023-04-16T20:00:34.588Z,35.53
2023-04-16T20:03:01.253Z,35.45
2023-04-16T20:05:28.956Z,38.72
2023-04-16T20:07:56.314Z,37.72
2023-04-16T20:10:23.765Z,38.58
2023-04-16T20:12:51.443Z,37.42
2023-04-16T20:15:19.059Z,38.38
2023-04-16T20:17:46.030Z,37.40
2023-04-16T20:20:15.432Z,40.45
2023-04-16T20:22:42.827Z,38.92
2023-04-16T20:25:10.248Z,35.58
2023-04-16T20:27:37.054Z,34.55
2023-04-16T20:30:05.284Z,38.40
2023-04-16T20:32:32.215Z,41.33
2023-04-16T20:34:59.579Z,39.00
2023-04-16T20:37:28.604Z,42.47
2023-04-16T20:39:55.984Z,41.92
2023-04-16T20:42:23.102Z,45.50
2023-04-16T20:44:56.164Z,44.47
2023-04-16T20:47:22.986Z,45.08
2023-04-16T20:49:49.811Z,38.92
2023-04-16T20:52:16.727Z,41.72
2023-04-16T20:54:43.511Z,39.35
2023-04-16T20:57:10.111Z,40.88
2023-04-16T20:59:36.867Z,37.38
2023-04-16T21:02:03.681Z,42.63
2023-04-16T21:04:30.533Z,44.08
2023-04-16T21:06:57.355Z,44.20
2023-04-16T21:09:24.092Z,44.90
2023-04-16T21:11:50.944Z,46.25
2023-04-16T21:14:17.537Z,51.50
2023-04-16T21:16:44.209Z,47.47
2023-04-16T21:19:11.520Z,47.92
2023-04-16T21:21:38.704Z,47.20
2023-04-16T21:24:06.050Z,51.60
2023-04-16T21:26:32.678Z,53.80
2023-04-16T21:28:59.315Z,62.00
2023-04-16T21:31:26.057Z,51.65
2023-04-16T21:33:52.813Z,57.33
2023-04-16T21:36:19.465Z,51.40
2023-04-16T21:38:46.146Z,54.30
2023-04-16T21:41:12.781Z,54.50
2023-04-16T21:43:39.394Z,55.60
2023-04-16T21:46:06.055Z,58.13
2023-04-16T21:48:32.657Z,57.28
2023-04-16T21:51:08.153Z,56.45
2023-04-16T21:53:35.208Z,56.55
2023-04-16T21:56:01.876Z,52.95
2023-04-16T21:58:28.492Z,57.92
2023-04-16T22:00:55.175Z,53.88
2023-04-16T22:03:26.097Z,56.70
2023-04-16T22:06:01.397Z,55.97
2023-04-16T22:08:31.567Z,55.85
2023-04-16T22:11:02.503Z,61.92
2023-04-16T22:13:32.088Z,60.40
2023-04-16T22:16:02.001Z,63.03
2023-04-16T22:18:32.652Z,53.58
2023-04-16T22:20:59.363Z,58.42
2023-04-16T22:23:26.323Z,53.28
2023-04-16T22:25:55.291Z,59.03
2023-04-16T22:28:22.725Z,61.95
2023-04-16T22:30:49.401Z,61.42
2023-04-16T22:33:16.201Z,62.30
2023-04-16T22:35:43.277Z,65.90
2023-04-16T22:38:10.450Z,58.28
2023-04-16T22:40:37.161Z,62.30
2023-04-16T22:43:04.025Z,59.00
2023-04-16T22:45:30.974Z,63.60
2023-04-16T22:47:57.655Z,62.63
2023-04-16T22:50:24.362Z,63.20
2023-04-16T22:52:50.948Z,67.00
2023-04-16T22:55:17.655Z,64.28
2023-04-16T22:57:44.462Z,61.20
2023-04-16T23:00:15.704Z,63.13
2023-04-16T23:02:42.846Z,61.35
2023-04-16T23:05:10.233Z,66.15
2023-04-16T23:07:37.144Z,63.22
2023-04-16T23:10:04.065Z,65.43
2023-04-16T23:12:31.101Z,67.15
2023-04-16T23:14:58.151Z,66.18
2023-04-16T23:17:24.839Z,69.15
2023-04-16T23:19:51.488Z,61.78
2023-04-16T23:22:18.096Z,70.38
2023-04-16T23:24:44.757Z,68.15
2023-04-16T23:27:11.527Z,63.65
2023-04-16T23:29:38.127Z,69.38
2023-04-16T23:32:04.916Z,69.15
2023-04-16T23:34:31.539Z,66.32
2023-04-16T23:36:58.139Z,67.78
2023-04-16T23:39:24.726Z,69.47
2023-04-16T23:41:51.305Z,66.18
2023-04-16T23:44:17.880Z,67.05
2023-04-16T23:46:44.865Z,63.28
2023-04-16T23:49:11.717Z,59.70
2023-04-16T23:51:38.457Z,61.80
2023-04-16T23:54:05.229Z,66.85
2023-04-16T23:56:31.884Z,64.10
2023-04-16T23:58:58.610Z,69.68
